JUDAH1 KSHV-KBGR
Flight info
| Callsign | JUDAH1 |
|---|---|
| Flight time | N/A |
| Altitude | 37000 |
| Route | DCT MEM DCT AGC DCT ALB DCT |
| Aircraft | MD83/M-SDFGIRWY/C |
Departure
| Time | 2026-04-10 22:00 |
|---|---|
| Airport | Shreveport Regional Airport (KSHV) |
Arrival
| Time | N/A |
|---|---|
| Airport | Bangor International Airport (KBGR) |
| Time | Latitude | Longitude | Altitude | Speed | Heading |
|---|---|---|---|---|---|
| 2026-04-10 21:05 | 32.45566 | -93.81923 | 246 ft | 0 kts | 329° |
| 2026-04-10 21:35 | 32.45565 | -93.81922 | 246 ft | 1 kts | 329° |
| 2026-04-10 21:35 | 32.45553 | -93.81914 | 246 ft | 3 kts | 329° |
| 2026-04-10 21:35 | 32.45536 | -93.81902 | 247 ft | 3 kts | 331° |
| 2026-04-10 21:35 | 32.45518 | -93.81891 | 247 ft | 3 kts | 331° |
| 2026-04-10 21:36 | 32.45506 | -93.81883 | 248 ft | 0 kts | 331° |
| 2026-04-10 21:38 | 32.45509 | -93.81885 | 248 ft | 1 kts | 331° |
| 2026-04-10 21:38 | 32.45518 | -93.81891 | 247 ft | 0 kts | 331° |
| 2026-04-10 21:44 | 32.45521 | -93.81893 | 247 ft | 0 kts | 321° |
| 2026-04-10 21:44 | 32.45523 | -93.81900 | 247 ft | 1 kts | 288° |
| 2026-04-10 21:44 | 32.45523 | -93.81906 | 247 ft | 0 kts | 272° |
| 2026-04-10 21:45 | 32.45525 | -93.81889 | 247 ft | 1 kts | 248° |
| 2026-04-10 21:45 | 32.45527 | -93.81881 | 247 ft | 0 kts | 229° |
| 2026-04-10 21:45 | 32.45500 | -93.81877 | 248 ft | 11 kts | 158° |
| 2026-04-10 21:45 | 32.45455 | -93.81850 | 250 ft | 6 kts | 151° |
| 2026-04-10 21:46 | 32.45424 | -93.81830 | 252 ft | 4 kts | 151° |
| 2026-04-10 21:46 | 32.45409 | -93.81820 | 253 ft | 0 kts | 151° |
| 2026-04-10 21:50 | 32.45363 | -93.81821 | 254 ft | 12 kts | 218° |
| 2026-04-10 21:51 | 32.45297 | -93.81953 | 249 ft | 21 kts | 240° |
| 2026-04-10 21:51 | 32.45219 | -93.82117 | 247 ft | 24 kts | 240° |
| 2026-04-10 21:51 | 32.45139 | -93.82285 | 244 ft | 22 kts | 240° |
| 2026-04-10 21:51 | 32.45064 | -93.82447 | 243 ft | 23 kts | 242° |
| 2026-04-10 21:52 | 32.45014 | -93.82633 | 241 ft | 22 kts | 264° |
| 2026-04-10 21:52 | 32.45015 | -93.82752 | 243 ft | 14 kts | 275° |
| 2026-04-10 21:52 | 32.45048 | -93.82895 | 242 ft | 22 kts | 292° |
| 2026-04-10 21:52 | 32.45129 | -93.83046 | 248 ft | 20 kts | 312° |
| 2026-04-10 21:53 | 32.45240 | -93.83155 | 253 ft | 22 kts | 322° |
| 2026-04-10 21:53 | 32.45362 | -93.83265 | 260 ft | 20 kts | 323° |
| 2026-04-10 21:53 | 32.45438 | -93.83355 | 263 ft | 9 kts | 284° |
| 2026-04-10 21:53 | 32.45433 | -93.83382 | 262 ft | 0 kts | 246° |
| 2026-04-10 21:54 | 32.45433 | -93.83384 | 262 ft | 0 kts | 246° |
| 2026-04-10 21:58 | 32.45431 | -93.83387 | 262 ft | 5 kts | 246° |
| 2026-04-10 21:58 | 32.45371 | -93.83443 | 260 ft | 14 kts | 176° |
| 2026-04-10 21:58 | 32.45274 | -93.83387 | 257 ft | 0 kts | 143° |
| 2026-04-10 21:58 | 32.45273 | -93.83386 | 257 ft | 2 kts | 143° |
| 2026-04-10 21:59 | 32.45272 | -93.83385 | 257 ft | 0 kts | 143° |
| 2026-04-10 21:59 | 32.45261 | -93.83375 | 256 ft | 12 kts | 143° |
| 2026-04-10 21:59 | 32.44952 | -93.83098 | 236 ft | 103 kts | 143° |
| 2026-04-10 22:00 | 32.44477 | -93.82667 | 245 ft | 153 kts | 144° |
| 2026-04-10 22:00 | 32.43522 | -93.81850 | 846 ft | 176 kts | 142° |
| 2026-04-10 22:00 | 32.42508 | -93.80904 | 1628 ft | 200 kts | 140° |
| 2026-04-10 22:00 | 32.41441 | -93.80148 | 2809 ft | 194 kts | 160° |
| 2026-04-10 22:01 | 32.39974 | -93.79901 | 3071 ft | 246 kts | 180° |
| 2026-04-10 22:01 | 32.37995 | -93.79933 | 2521 ft | 314 kts | 176° |
| 2026-04-10 22:01 | 32.35691 | -93.79616 | 2387 ft | 350 kts | 171° |